Time;durP1;ratioP1;P1;durP2;ratioP2;P2;SDS_P1;SDS_P2;PMS_P1;PMS_P2;Temp;Humidity;BMP_temperature;BMP_pressure;BME280_temperature;BME280_humidity;BME280_pressure;Samples;Min_cycle;Max_cycle;Signal;HPM_P1;HPM_P2
2023/06/30 00:01:33;;;;;;;1.98;0.40;;;;;;;19.03;72.88;100477.28;5060798;28;20091;-70
2023/06/30 00:04:01;;;;;;;8.30;0.88;;;;;;;18.97;72.89;100473.63;5073822;28;20061;-70
2023/06/30 00:06:27;;;;;;;5.57;0.57;;;;;;;18.95;73.18;100465.06;5069621;28;20051;-70
2023/06/30 00:08:53;;;;;;;1.48;0.55;;;;;;;18.98;72.92;100469.16;5070122;28;20032;-71
2023/06/30 00:11:24;;;;;;;2.80;0.57;;;;;;;19.00;73.07;100472.41;5069045;28;20447;-70
2023/06/30 00:13:52;;;;;;;3.00;0.50;;;;;;;19.07;73.47;100473.25;5059269;28;20085;-70
2023/06/30 00:16:17;;;;;;;1.90;0.70;;;;;;;19.08;74.17;100477.50;5071130;28;20431;-70
2023/06/30 00:18:43;;;;;;;1.20;0.50;;;;;;;19.06;74.97;100474.25;5071326;28;20032;-70
2023/06/30 00:21:08;;;;;;;2.03;0.50;;;;;;;18.98;75.50;100463.88;5071751;28;20110;-70
2023/06/30 00:23:34;;;;;;;1.60;0.50;;;;;;;18.95;75.67;100464.25;5072347;28;20437;-70
2023/06/30 00:26:01;;;;;;;2.08;0.50;;;;;;;18.95;75.85;100466.91;5072367;28;20032;-71
2023/06/30 00:28:28;;;;;;;3.28;0.45;;;;;;;18.85;75.56;100462.03;5072773;28;20057;-70
2023/06/30 00:30:54;;;;;;;2.42;0.50;;;;;;;18.86;75.12;100463.66;5077265;28;20024;-70
2023/06/30 00:33:19;;;;;;;2.45;0.50;;;;;;;18.86;74.65;100453.09;5073203;28;20089;-71
2023/06/30 00:35:45;;;;;;;3.15;0.65;;;;;;;18.83;74.57;100448.22;5074139;28;20957;-71
2023/06/30 00:38:11;;;;;;;1.30;0.60;;;;;;;18.84;74.73;100445.38;5074058;28;20052;-70
2023/06/30 00:40:36;;;;;;;1.83;0.60;;;;;;;18.84;75.13;100453.28;5074231;28;20040;-70
2023/06/30 00:43:02;;;;;;;3.17;0.75;;;;;;;18.90;75.09;100449.06;5065650;28;20108;-70
2023/06/30 00:45:29;;;;;;;1.95;0.60;;;;;;;18.92;74.66;100443.53;5074088;28;20031;-70
2023/06/30 00:47:55;;;;;;;2.38;0.60;;;;;;;18.86;74.07;100453.91;5073573;28;20142;-70
2023/06/30 00:50:21;;;;;;;1.50;0.75;;;;;;;18.87;73.90;100444.16;5075279;28;20058;-71
2023/06/30 00:52:49;;;;;;;1.45;0.73;;;;;;;18.80;74.09;100436.22;5073126;28;20046;-70
2023/06/30 00:55:16;;;;;;;3.42;1.02;;;;;;;18.75;74.02;100446.56;5073124;28;20029;-69
2023/06/30 00:57:42;;;;;;;5.18;0.52;;;;;;;18.68;74.18;100439.63;5073120;28;20115;-69
2023/06/30 01:00:11;;;;;;;2.58;0.50;;;;;;;18.61;74.93;100442.25;5075148;28;20035;-71
2023/06/30 01:03:14;;;;;;;1.55;0.85;;;;;;;18.44;76.95;100435.63;5076916;28;20074;-71
2023/06/30 01:06:06;;;;;;;3.63;1.00;;;;;;;18.31;77.57;100440.88;5072142;28;20044;-71
2023/06/30 01:09:04;;;;;;;5.25;0.75;;;;;;;18.18;78.81;100439.78;5071174;28;20051;-71
2023/06/30 01:11:32;;;;;;;2.03;0.90;;;;;;;18.21;77.67;100439.41;5062729;28;20034;-71
2023/06/30 01:14:01;;;;;;;3.92;0.80;;;;;;;18.21;77.64;100438.59;5071056;28;20033;-71
2023/06/30 01:16:29;;;;;;;3.10;0.70;;;;;;;18.22;77.59;100437.56;5069029;28;20039;-71
2023/06/30 01:18:58;;;;;;;2.08;0.60;;;;;;;18.21;77.64;100438.59;5071253;28;20036;-72
2023/06/30 01:21:28;;;;;;;1.50;0.70;;;;;;;18.15;78.11;100431.44;5070160;28;20106;-71
2023/06/30 01:24:02;;;;;;;4.90;0.63;;;;;;;18.11;78.74;100441.56;5063929;28;20036;-71
2023/06/30 01:26:34;;;;;;;1.52;0.80;;;;;;;18.13;78.56;100444.81;5067026;28;20047;-70
2023/06/30 01:29:04;;;;;;;1.42;0.85;;;;;;;18.08;78.99;100446.41;5072763;28;20028;-70
2023/06/30 01:31:32;;;;;;;1.80;0.63;;;;;;;18.10;78.86;100449.66;5063923;28;20559;-71
2023/06/30 01:34:12;;;;;;;1.95;0.82;;;;;;;18.09;78.87;100453.31;5044626;28;20481;-70
2023/06/30 01:36:37;;;;;;;1.73;0.80;;;;;;;18.10;78.84;100454.94;5067029;28;20514;-71
2023/06/30 01:39:03;;;;;;;3.75;1.00;;;;;;;18.12;78.70;100442.38;5070784;28;20059;-70
2023/06/30 01:41:29;;;;;;;3.08;0.77;;;;;;;18.12;78.72;100445.84;5076913;28;20407;-69
2023/06/30 01:43:55;;;;;;;3.33;0.70;;;;;;;18.13;78.55;100450.09;5069428;28;20453;-70
2023/06/30 01:46:21;;;;;;;3.67;0.77;;;;;;;18.05;78.66;100449.44;5074622;28;20398;-70
2023/06/30 01:48:47;;;;;;;2.92;0.63;;;;;;;18.00;79.13;100450.00;5072355;28;20036;-70
2023/06/30 01:51:13;;;;;;;1.38;0.65;;;;;;;18.01;79.06;100438.44;5069619;28;20099;-70
2023/06/30 01:53:39;;;;;;;4.55;0.60;;;;;;;18.01;79.09;100445.56;5069860;28;20051;-71
2023/06/30 01:56:05;;;;;;;3.42;0.80;;;;;;;17.93;79.53;100443.91;5067793;28;20024;-72
2023/06/30 01:58:32;;;;;;;2.08;0.80;;;;;;;17.86;80.02;100443.84;5070498;28;20523;-71
2023/06/30 02:00:58;;;;;;;1.95;0.50;;;;;;;17.87;80.16;100444.66;5070833;28;20090;-71
2023/06/30 02:03:23;;;;;;;4.15;1.25;;;;;;;17.87;80.59;100439.41;5072201;28;20665;-71
2023/06/30 02:05:49;;;;;;;3.47;0.80;;;;;;;17.83;80.94;100443.44;5077051;28;20032;-70
2023/06/30 02:08:17;;;;;;;2.10;0.95;;;;;;;17.79;81.68;100442.19;5073139;28;20115;-71
2023/06/30 02:10:42;;;;;;;2.10;0.70;;;;;;;17.71;82.31;100439.69;5065213;28;20032;-70
2023/06/30 02:13:08;;;;;;;3.75;1.35;;;;;;;17.71;82.28;100439.69;5076095;28;20024;-71
2023/06/30 02:15:34;;;;;;;2.75;0.90;;;;;;;17.76;81.72;100434.66;5070635;28;20036;-70
2023/06/30 02:17:59;;;;;;;4.63;1.00;;;;;;;17.72;81.54;100441.31;5070688;28;20060;-72
2023/06/30 02:20:26;;;;;;;1.75;0.95;;;;;;;17.74;81.37;100439.31;5068846;28;20031;-71
2023/06/30 02:22:53;;;;;;;1.10;0.70;;;;;;;17.70;81.36;100432.78;5079178;28;20468;-70
2023/06/30 02:25:20;;;;;;;1.20;0.70;;;;;;;17.70;81.29;100428.31;5070463;28;20040;-71
2023/06/30 02:27:45;;;;;;;2.22;0.98;;;;;;;17.72;81.39;100436.03;5058547;28;20477;-71
2023/06/30 02:30:12;;;;;;;1.88;0.68;;;;;;;17.76;80.89;100432.00;5073828;28;20032;-71
2023/06/30 02:32:40;;;;;;;0.90;0.57;;;;;;;17.73;81.04;100427.94;5072700;28;20062;-71
2023/06/30 02:35:07;;;;;;;1.52;0.70;;;;;;;17.73;80.87;100432.41;5070990;28;20171;-71
2023/06/30 02:37:32;;;;;;;3.78;0.70;;;;;;;17.75;81.01;100427.75;5068412;28;20039;-71
2023/06/30 02:39:58;;;;;;;3.17;0.95;;;;;;;17.73;81.24;100429.75;5072159;28;20028;-71
2023/06/30 02:42:24;;;;;;;1.15;0.63;;;;;;;17.70;81.28;100432.78;5064143;28;20028;-71
2023/06/30 02:44:50;;;;;;;1.70;0.55;;;;;;;17.65;81.01;100429.88;5066691;28;20032;-72
2023/06/30 02:47:16;;;;;;;3.85;1.15;;;;;;;17.62;80.87;100428.44;5067980;28;20063;-71
2023/06/30 02:49:42;;;;;;;2.47;0.75;;;;;;;17.66;80.61;100431.53;5069798;28;20047;-71
2023/06/30 02:52:08;;;;;;;2.65;0.88;;;;;;;17.68;80.61;100429.53;5071270;28;20074;-71
2023/06/30 02:54:34;;;;;;;1.00;0.60;;;;;;;17.67;80.95;100433.16;5072589;28;20036;-71
2023/06/30 02:57:00;;;;;;;6.07;0.90;;;;;;;17.65;81.43;100436.00;5062420;28;20034;-71
2023/06/30 02:59:28;;;;;;;3.72;0.60;;;;;;;17.59;81.96;100432.25;5066031;28;20377;-72
2023/06/30 03:01:54;;;;;;;2.63;0.90;;;;;;;17.54;81.86;100434.66;5072173;28;20028;-71
2023/06/30 03:04:19;;;;;;;2.28;0.70;;;;;;;17.56;81.79;100434.47;5075155;28;20051;-72
2023/06/30 03:06:45;;;;;;;2.13;1.00;;;;;;;17.55;81.61;100430.19;5062196;28;20051;-71
2023/06/30 03:09:11;;;;;;;3.25;0.60;;;;;;;17.49;81.82;100426.50;5070999;28;20539;-71
2023/06/30 03:11:38;;;;;;;5.95;1.00;;;;;;;17.46;81.83;100426.91;5071716;28;20031;-71
2023/06/30 03:14:03;;;;;;;2.25;0.88;;;;;;;17.43;81.92;100427.28;5061743;28;20055;-72
2023/06/30 03:16:31;;;;;;;2.67;0.80;;;;;;;17.40;82.07;100425.03;5070274;28;20067;-71
2023/06/30 03:18:58;;;;;;;2.53;0.82;;;;;;;17.41;81.95;100420.56;5070140;28;20398;-71
2023/06/30 03:21:25;;;;;;;1.83;0.50;;;;;;;17.43;81.67;100426.47;5074529;28;20070;-71
2023/06/30 03:23:50;;;;;;;2.85;0.88;;;;;;;17.45;81.61;100421.84;5070318;28;20483;-71
2023/06/30 03:26:17;;;;;;;1.52;0.57;;;;;;;17.47;81.49;100425.09;5067458;28;20036;-71
2023/06/30 03:28:42;;;;;;;3.80;0.80;;;;;;;17.40;81.67;100422.41;5076722;28;20040;-72
2023/06/30 03:31:07;;;;;;;4.35;0.82;;;;;;;17.38;81.70;100424.41;5073793;28;20040;-71
2023/06/30 03:33:34;;;;;;;2.72;0.60;;;;;;;17.42;81.42;100412.50;5069486;28;20843;-71
2023/06/30 03:36:00;;;;;;;1.58;0.70;;;;;;;17.49;81.27;100413.31;5068579;28;20032;-71
2023/06/30 03:38:25;;;;;;;1.92;0.50;;;;;;;17.49;81.41;100408.06;5063747;28;20114;-71
2023/06/30 03:40:52;;;;;;;3.17;0.80;;;;;;;17.43;82.29;100411.50;5062649;28;20029;-71
2023/06/30 03:43:21;;;;;;;4.45;1.00;;;;;;;17.40;82.69;100411.88;5060632;28;20037;-71
2023/06/30 03:45:48;;;;;;;4.95;1.00;;;;;;;17.34;83.27;100412.63;5070219;28;20024;-71
2023/06/30 03:48:13;;;;;;;2.75;0.52;;;;;;;17.33;82.97;100412.81;5071817;28;20036;-72
2023/06/30 03:50:42;;;;;;;2.25;0.60;;;;;;;17.33;82.43;100408.34;5069631;28;20028;-71
2023/06/30 03:53:07;;;;;;;2.28;0.77;;;;;;;17.33;82.14;100407.53;5068531;28;20049;-71
2023/06/30 03:55:34;;;;;;;2.28;1.10;;;;;;;17.39;81.67;100399.69;5069932;28;20175;-71
2023/06/30 03:57:59;;;;;;;2.00;0.75;;;;;;;17.44;81.32;100407.84;5074943;28;20158;-70
2023/06/30 04:00:28;;;;;;;2.25;0.80;;;;;;;17.46;81.41;100402.38;5072467;28;20599;-72
2023/06/30 04:02:53;;;;;;;2.22;0.80;;;;;;;17.50;81.20;100411.50;5065247;28;20384;-73
2023/06/30 04:05:20;;;;;;;5.35;2.08;;;;;;;17.53;81.27;100408.50;5070587;28;20029;-71
2023/06/30 04:07:45;;;;;;;1.52;0.75;;;;;;;17.52;81.71;100406.88;5075482;28;20060;-72
2023/06/30 04:10:11;;;;;;;2.67;1.10;;;;;;;17.50;81.99;100404.44;5066511;28;20185;-73
2023/06/30 04:12:36;;;;;;;0.93;0.50;;;;;;;17.51;82.15;100407.88;5066729;28;20476;-72
2023/06/30 04:15:04;;;;;;;2.33;0.90;;;;;;;17.52;81.94;100407.69;5070108;28;20038;-72
2023/06/30 04:17:29;;;;;;;2.92;0.82;;;;;;;17.52;81.85;100402.41;5068656;28;20028;-72
2023/06/30 04:19:56;;;;;;;2.53;0.70;;;;;;;17.61;81.64;100399.66;5068990;28;20043;-72
2023/06/30 04:22:22;;;;;;;2.72;0.88;;;;;;;17.59;82.30;100405.91;5059256;28;20063;-71
2023/06/30 04:24:48;;;;;;;3.20;0.80;;;;;;;17.65;82.64;100403.53;5073234;28;20086;-71
2023/06/30 04:27:15;;;;;;;1.88;0.70;;;;;;;17.65;82.62;100398.25;5063152;28;20041;-71
2023/06/30 04:29:40;;;;;;;3.20;0.70;;;;;;;17.65;82.43;100398.25;5060349;28;20120;-71
2023/06/30 04:32:06;;;;;;;2.05;0.60;;;;;;;17.72;81.79;100394.69;5061798;28;20119;-71
2023/06/30 04:34:35;;;;;;;2.60;0.80;;;;;;;17.85;80.92;100405.34;5066209;28;20077;-70
2023/06/30 04:37:00;;;;;;;4.13;0.60;;;;;;;17.87;80.68;100407.78;5074698;28;20028;-72
2023/06/30 04:39:27;;;;;;;2.67;0.60;;;;;;;17.92;80.60;100391.38;5072177;28;20082;-71
2023/06/30 04:41:52;;;;;;;3.05;0.60;;;;;;;17.97;80.24;100389.75;5062387;28;20109;-73
2023/06/30 04:44:18;;;;;;;2.75;0.52;;;;;;;18.05;80.11;100384.34;5061689;28;20124;-73
2023/06/30 04:46:44;;;;;;;2.72;0.60;;;;;;;18.15;80.30;100390.06;5064677;28;20031;-69
2023/06/30 04:49:09;;;;;;;3.47;0.75;;;;;;;18.12;80.65;100379.91;5069563;28;20464;-68
2023/06/30 04:51:35;;;;;;;2.85;0.52;;;;;;;18.10;80.92;100376.66;5056286;28;20496;-68
2023/06/30 04:54:01;;;;;;;3.58;0.80;;;;;;;18.14;81.21;100377.91;5062481;28;20081;-67
2023/06/30 04:56:27;;;;;;;1.70;0.98;;;;;;;18.19;81.17;100380.75;5068559;28;20029;-66
2023/06/30 04:58:53;;;;;;;1.80;0.68;;;;;;;18.13;81.20;100371.00;5063838;28;20056;-67
2023/06/30 05:01:18;;;;;;;4.15;0.77;;;;;;;18.19;80.99;100372.03;5070384;28;20089;-66
2023/06/30 05:03:43;;;;;;;4.57;0.80;;;;;;;18.21;81.06;100362.94;5074423;28;20391;-66
2023/06/30 05:06:10;;;;;;;4.07;1.30;;;;;;;18.26;81.15;100359.69;5073756;28;20056;-67
2023/06/30 05:08:35;;;;;;;3.00;1.27;;;;;;;18.31;80.63;100359.13;5080406;28;20501;-67
2023/06/30 05:11:02;;;;;;;4.35;1.30;;;;;;;18.39;80.52;100354.47;5073877;28;20037;-66
2023/06/30 05:13:28;;;;;;;2.78;1.02;;;;;;;18.46;79.98;100360.56;5071617;28;20435;-67
2023/06/30 05:15:54;;;;;;;2.67;1.02;;;;;;;18.50;80.00;100356.53;5076510;28;20028;-67
2023/06/30 05:18:19;;;;;;;1.98;0.73;;;;;;;18.66;79.58;100354.56;5073349;28;20039;-67
2023/06/30 05:20:44;;;;;;;2.35;1.10;;;;;;;18.73;78.92;100350.94;5073757;28;20028;-67
2023/06/30 05:23:10;;;;;;;2.35;0.93;;;;;;;18.89;78.13;100349.75;5073013;28;20511;-67
2023/06/30 05:25:35;;;;;;;1.90;0.90;;;;;;;18.98;77.34;100351.16;5072474;28;20036;-66
2023/06/30 05:28:03;;;;;;;1.90;0.90;;;;;;;19.04;77.20;100338.97;5071727;28;20028;-67
2023/06/30 05:30:29;;;;;;;8.85;1.00;;;;;;;19.08;77.02;100338.38;5072928;28;20037;-67
2023/06/30 05:32:55;;;;;;;5.72;0.73;;;;;;;19.12;77.27;100338.78;5071714;28;20487;-67
2023/06/30 05:35:20;;;;;;;2.28;0.55;;;;;;;19.23;76.92;100328.44;5072655;28;20380;-66
2023/06/30 05:37:46;;;;;;;3.25;0.95;;;;;;;19.28;76.68;100333.09;5067773;28;20036;-67
2023/06/30 05:40:13;;;;;;;1.88;0.80;;;;;;;19.27;76.70;100325.38;5079160;28;20033;-67
2023/06/30 05:42:39;;;;;;;1.67;0.70;;;;;;;19.33;76.50;100328.03;5066618;28;20118;-67
2023/06/30 05:45:05;;;;;;;2.15;0.50;;;;;;;19.58;75.39;100328.19;5078628;28;20063;-67
2023/06/30 05:47:30;;;;;;;4.90;0.93;;;;;;;19.78;74.21;100338.72;5065210;28;20550;-67
2023/06/30 05:49:57;;;;;;;3.47;0.77;;;;;;;19.78;73.88;100336.09;5073411;28;20027;-67
2023/06/30 05:52:24;;;;;;;3.30;0.93;;;;;;;19.91;73.56;100333.38;5075836;28;20181;-67
2023/06/30 05:54:50;;;;;;;2.58;0.63;;;;;;;20.01;73.39;100331.13;5070096;28;20057;-67
2023/06/30 05:57:16;;;;;;;1.80;0.70;;;;;;;20.11;73.65;100333.31;5070370;28;20064;-68
2023/06/30 05:59:42;;;;;;;2.75;1.00;;;;;;;20.27;74.24;100332.03;5066087;28;20031;-68
2023/06/30 06:02:07;;;;;;;2.03;0.50;;;;;;;20.20;74.59;100327.59;5071098;28;20028;-68
2023/06/30 06:04:33;;;;;;;2.53;1.02;;;;;;;20.17;74.94;100335.94;5064373;28;20044;-68
2023/06/30 06:07:02;;;;;;;1.83;0.95;;;;;;;20.35;74.66;100339.72;5068043;28;20063;-68
2023/06/30 06:09:28;;;;;;;3.67;1.02;;;;;;;20.33;74.41;100341.75;5081986;28;20399;-67
2023/06/30 06:11:53;;;;;;;1.17;0.60;;;;;;;20.36;74.21;100336.03;5092776;28;20032;-68
2023/06/30 06:14:19;;;;;;;12.20;1.02;;;;;;;20.43;74.20;100336.84;5086382;28;20078;-68
2023/06/30 06:16:45;;;;;;;3.95;0.80;;;;;;;20.52;73.29;100336.41;5086858;28;20379;-68
2023/06/30 06:19:12;;;;;;;4.43;0.60;;;;;;;20.73;72.94;100342.41;5081601;28;20059;-68
2023/06/30 06:21:37;;;;;;;7.72;0.65;;;;;;;20.87;71.56;100341.25;5091899;28;20394;-68
2023/06/30 06:24:03;;;;;;;1.60;0.60;;;;;;;20.94;72.02;100343.88;5089878;28;20035;-68
2023/06/30 06:26:29;;;;;;;1.33;0.55;;;;;;;20.98;71.57;100339.75;5078935;28;20037;-68
2023/06/30 06:28:54;;;;;;;3.08;0.73;;;;;;;21.03;71.29;100337.28;5083490;28;20039;-69
2023/06/30 06:31:20;;;;;;;2.00;0.60;;;;;;;21.20;70.84;100338.38;5084948;28;20040;-68
2023/06/30 06:33:45;;;;;;;3.42;0.70;;;;;;;21.38;70.46;100334.97;5081952;28;20116;-68
2023/06/30 06:36:11;;;;;;;1.58;0.57;;;;;;;21.54;69.62;100337.06;5082327;28;20381;-69
2023/06/30 06:38:37;;;;;;;1.33;0.47;;;;;;;21.58;68.64;100325.00;5089720;28;20031;-67
2023/06/30 06:41:02;;;;;;;1.42;0.55;;;;;;;21.64;68.27;100324.13;5088680;28;20116;-68
2023/06/30 06:43:28;;;;;;;1.67;0.85;;;;;;;21.81;67.75;100319.00;5067387;28;20404;-67
2023/06/30 06:45:53;;;;;;;4.97;0.40;;;;;;;21.90;67.22;100319.53;5082717;28;20433;-67
2023/06/30 06:48:24;;;;;;;2.30;0.50;;;;;;;22.07;66.99;100323.25;5087509;28;20036;-68
2023/06/30 06:50:55;;;;;;;2.58;0.50;;;;;;;22.21;66.83;100322.03;5091608;28;20122;-67
2023/06/30 06:53:28;;;;;;;2.97;0.73;;;;;;;22.33;66.20;100322.06;5091883;28;20047;-67
2023/06/30 06:55:55;;;;;;;3.70;0.52;;;;;;;22.56;65.35;100321.34;5063556;28;20035;-67
2023/06/30 06:58:22;;;;;;;4.63;0.50;;;;;;;22.76;64.60;100321.84;5073694;28;20099;-66
2023/06/30 07:00:50;;;;;;;2.10;0.95;;;;;;;22.79;64.33;100321.44;5066355;28;20028;-67
2023/06/30 07:03:16;;;;;;;6.18;0.70;;;;;;;22.82;64.57;100328.94;5071335;28;20430;-67
2023/06/30 07:05:44;;;;;;;1.40;0.50;;;;;;;22.98;63.99;100322.16;5070303;28;20479;-67
2023/06/30 07:08:11;;;;;;;2.97;0.40;;;;;;;23.02;63.79;100326.78;5059325;28;20049;-67
2023/06/30 07:10:36;;;;;;;5.20;0.50;;;;;;;23.06;64.20;100330.63;5059289;28;20040;-67
2023/06/30 07:13:03;;;;;;;6.72;0.88;;;;;;;23.18;63.81;100331.41;5068233;28;20037;-67
2023/06/30 07:15:29;;;;;;;1.88;0.60;;;;;;;23.22;64.28;100325.63;5088693;28;20038;-67
2023/06/30 07:17:56;;;;;;;3.35;0.50;;;;;;;23.42;63.15;100326.91;5088769;28;20036;-66
2023/06/30 07:20:22;;;;;;;5.38;0.80;;;;;;;23.68;62.22;100330.94;5064430;28;20085;-67
2023/06/30 07:22:47;;;;;;;1.33;0.50;;;;;;;23.72;61.24;100329.44;5066078;28;20170;-67
2023/06/30 07:25:13;;;;;;;6.90;0.88;;;;;;;23.81;61.08;100325.38;5079937;28;20430;-67
2023/06/30 07:27:39;;;;;;;2.10;0.47;;;;;;;23.86;61.05;100324.69;5089271;28;20041;-67
2023/06/30 07:30:05;;;;;;;3.80;0.52;;;;;;;24.03;60.72;100322.09;5075343;28;20035;-67
2023/06/30 07:32:33;;;;;;;1.00;0.40;;;;;;;24.24;59.59;100326.75;5090439;28;20063;-67
2023/06/30 07:34:58;;;;;;;3.33;0.50;;;;;;;24.25;59.74;100328.41;5084149;28;20028;-67
2023/06/30 07:37:24;;;;;;;2.88;0.60;;;;;;;24.34;59.62;100328.84;5084199;28;20032;-68
2023/06/30 07:39:49;;;;;;;1.65;0.50;;;;;;;24.55;59.24;100324.69;5090573;28;20380;-67
2023/06/30 07:42:15;;;;;;;1.67;0.68;;;;;;;24.67;58.12;100320.91;5074708;28;20489;-67
2023/06/30 07:44:41;;;;;;;6.18;0.60;;;;;;;24.74;57.25;100329.56;5078428;28;20032;-67
2023/06/30 07:47:07;;;;;;;1.40;0.40;;;;;;;25.10;56.89;100333.63;5063087;28;20048;-67
2023/06/30 07:49:34;;;;;;;7.68;0.40;;;;;;;25.30;56.46;100337.66;5058206;28;20032;-66
2023/06/30 07:52:00;;;;;;;1.90;0.40;;;;;;;25.51;56.37;100328.09;5080235;28;20415;-66
2023/06/30 07:54:25;;;;;;;3.92;0.50;;;;;;;25.58;56.79;100328.69;5070756;28;20039;-67
2023/06/30 07:56:51;;;;;;;3.78;0.68;;;;;;;25.81;56.62;100333.03;5058825;28;20073;-66
2023/06/30 07:59:17;;;;;;;2.88;0.40;;;;;;;25.93;55.46;100334.53;5071174;28;20066;-66
2023/06/30 08:01:43;;;;;;;1.52;0.50;;;;;;;25.95;55.22;100332.44;5069752;28;20028;-66
2023/06/30 08:04:11;;;;;;;2.58;0.45;;;;;;;25.87;54.26;100324.84;5070705;28;20117;-67
2023/06/30 08:06:38;;;;;;;2.95;0.40;;;;;;;25.98;54.06;100344.47;5063581;28;20025;-66
2023/06/30 08:09:03;;;;;;;1.10;0.30;;;;;;;26.19;54.92;100334.81;5067215;28;20033;-67
2023/06/30 08:11:30;;;;;;;2.05;0.30;;;;;;;26.34;53.53;100332.34;5075329;28;20090;-66
2023/06/30 08:13:56;;;;;;;2.53;0.32;;;;;;;26.53;52.29;100325.59;5067447;28;20036;-66
2023/06/30 08:16:22;;;;;;;2.40;0.50;;;;;;;26.56;52.75;100330.41;5072838;28;20051;-67
2023/06/30 08:18:48;;;;;;;3.53;0.50;;;;;;;26.54;53.50;100329.88;5069424;28;20021;-67
2023/06/30 08:21:13;;;;;;;4.20;0.40;;;;;;;26.30;52.48;100321.34;5079611;28;20492;-67
2023/06/30 08:23:39;;;;;;;0.50;0.20;;;;;;;26.35;52.06;100323.28;5069025;28;20029;-67
2023/06/30 08:26:04;;;;;;;1.75;0.30;;;;;;;26.41;51.43;100327.63;5059799;28;20076;-67
2023/06/30 08:28:30;;;;;;;2.53;0.40;;;;;;;26.37;49.77;100329.19;5067270;28;20102;-66
2023/06/30 08:30:56;;;;;;;0.63;0.30;;;;;;;26.47;49.16;100331.94;5078074;28;20040;-67
2023/06/30 08:33:30;;;;;;;2.03;0.30;;;;;;;26.71;48.68;100335.09;5065767;28;20050;-68
2023/06/30 08:35:56;;;;;;;0.95;0.30;;;;;;;26.90;48.31;100327.53;5060114;28;20391;-67
2023/06/30 08:38:21;;;;;;;2.90;0.30;;;;;;;26.86;47.68;100329.09;5073324;28;20034;-66
2023/06/30 08:40:47;;;;;;;0.98;0.25;;;;;;;26.85;47.13;100327.47;5063775;28;20029;-66
2023/06/30 08:43:13;;;;;;;3.53;0.40;;;;;;;27.25;47.20;100335.81;5068875;28;20029;-67
2023/06/30 08:45:39;;;;;;;1.17;0.30;;;;;;;27.50;47.18;100329.81;5079376;28;20527;-66
2023/06/30 08:48:05;;;;;;;0.73;0.30;;;;;;;27.22;46.99;100332.84;5060272;28;20082;-67
2023/06/30 08:50:34;;;;;;;3.45;0.30;;;;;;;27.48;46.89;100328.44;5067334;28;20048;-66
2023/06/30 08:53:01;;;;;;;4.57;0.50;;;;;;;27.31;45.61;100332.13;5078504;28;20047;-66
2023/06/30 08:55:27;;;;;;;1.35;0.50;;;;;;;26.88;45.00;100329.66;5066245;28;20036;-66
2023/06/30 08:57:56;;;;;;;0.80;0.30;;;;;;;26.93;45.78;100329.69;5070705;28;20471;-66
2023/06/30 09:00:23;;;;;;;2.97;0.40;;;;;;;27.34;45.92;100344.19;5069218;28;20119;-66
2023/06/30 09:02:49;;;;;;;2.63;0.50;;;;;;;27.67;46.83;100340.38;5071141;28;20376;-67
2023/06/30 09:05:15;;;;;;;0.80;0.40;;;;;;;27.80;46.86;100345.25;5085191;28;20036;-67
2023/06/30 09:08:03;;;;;;;4.63;0.50;;;;;;;27.85;44.75;100337.25;5074892;28;20033;-67
2023/06/30 09:10:36;;;;;;;3.33;0.50;;;;;;;27.58;46.22;100337.34;5090848;28;20513;-67
2023/06/30 09:13:03;;;;;;;6.13;0.40;;;;;;;27.35;46.31;100335.09;5063749;28;20048;-68
2023/06/30 09:15:30;;;;;;;2.53;0.40;;;;;;;27.42;47.35;100333.78;5085276;28;20028;-67
2023/06/30 09:17:56;;;;;;;2.08;0.40;;;;;;;27.49;47.01;100327.38;5093590;28;20028;-67
2023/06/30 09:20:22;;;;;;;4.32;0.65;;;;;;;27.49;47.04;100338.09;5093349;28;20151;-66
2023/06/30 09:22:47;;;;;;;2.28;0.40;;;;;;;27.69;46.26;100327.53;5081147;28;20036;-66
2023/06/30 09:25:24;;;;;;;3.90;0.30;;;;;;;27.10;44.34;100330.38;5091397;28;20032;-67
2023/06/30 09:27:51;;;;;;;2.38;0.40;;;;;;;27.34;47.31;100336.16;5093198;28;20020;-67
2023/06/30 09:30:16;;;;;;;0.80;0.30;;;;;;;27.73;45.84;100331.31;5075795;28;20526;-66
2023/06/30 09:32:42;;;;;;;0.70;0.30;;;;;;;27.64;45.29;100319.47;5075619;28;20039;-66
2023/06/30 09:35:12;;;;;;;1.50;0.38;;;;;;;27.60;45.10;100318.38;5092852;28;20032;-67
2023/06/30 09:37:42;;;;;;;2.75;0.40;;;;;;;27.27;45.08;100323.00;5092588;28;20032;-66
2023/06/30 09:40:24;;;;;;;2.95;0.50;;;;;;;26.71;44.70;100314.53;5082432;28;20369;-67
2023/06/30 09:42:53;;;;;;;3.35;0.40;;;;;;;26.62;47.86;100318.72;5074480;28;20119;-67
2023/06/30 09:45:18;;;;;;;2.13;0.35;;;;;;;26.73;47.06;100317.75;5090267;28;20035;-67
2023/06/30 09:47:50;;;;;;;2.80;0.57;;;;;;;26.72;47.87;100318.81;5091990;28;20046;-66
2023/06/30 09:50:41;;;;;;;5.13;1.60;;;;;;;26.90;47.99;100311.47;5085922;28;20083;-66
2023/06/30 09:53:08;;;;;;;2.45;0.30;;;;;;;26.68;47.47;100312.38;5083900;28;20067;-66
2023/06/30 09:55:49;;;;;;;0.70;0.40;;;;;;;26.86;46.74;100313.06;5075199;28;20033;-66
2023/06/30 09:58:16;;;;;;;2.05;0.68;;;;;;;26.85;46.53;100309.56;5082715;28;20055;-67
2023/06/30 10:00:42;;;;;;;3.92;0.52;;;;;;;26.75;46.76;100310.28;5090203;28;20638;-67
2023/06/30 10:03:11;;;;;;;2.67;0.32;;;;;;;26.54;46.70;100300.47;5092497;28;20080;-67
2023/06/30 10:05:38;;;;;;;1.63;0.40;;;;;;;26.43;46.95;100296.13;5088296;28;20028;-66
2023/06/30 10:08:03;;;;;;;1.65;0.40;;;;;;;26.58;47.27;100309.59;5086743;28;20055;-66
2023/06/30 10:10:29;;;;;;;3.63;0.40;;;;;;;26.74;47.12;100307.88;5088943;28;20063;-66
2023/06/30 10:12:58;;;;;;;1.85;0.40;;;;;;;26.65;46.46;100304.06;5092476;28;20036;-66
2023/06/30 10:15:25;;;;;;;1.27;0.40;;;;;;;26.81;46.46;100305.00;5088096;28;20059;-67
2023/06/30 10:17:54;;;;;;;5.43;0.50;;;;;;;26.86;47.01;100305.03;5092530;28;20024;-67
2023/06/30 10:20:20;;;;;;;11.90;0.95;;;;;;;26.84;46.91;100317.84;5092127;28;20088;-67
2023/06/30 10:22:46;;;;;;;2.97;0.50;;;;;;;26.86;47.42;100307.72;5079413;28;20060;-67
2023/06/30 10:25:14;;;;;;;2.33;0.40;;;;;;;26.86;48.25;100305.03;5086575;28;20122;-66
2023/06/30 10:27:40;;;;;;;2.55;0.40;;;;;;;26.76;47.59;100303.88;5090449;28;20085;-66
2023/06/30 10:30:07;;;;;;;1.02;0.40;;;;;;;26.92;47.07;100302.16;5089799;28;20028;-66
2023/06/30 10:32:33;;;;;;;1.15;0.40;;;;;;;27.05;46.48;100303.59;5091410;28;20044;-67
2023/06/30 10:34:59;;;;;;;2.10;0.50;;;;;;;27.13;46.85;100305.78;5082260;28;20024;-67
2023/06/30 10:37:26;;;;;;;0.93;0.40;;;;;;;27.56;47.15;100301.22;5088309;28;20036;-66
2023/06/30 10:39:51;;;;;;;3.25;0.93;;;;;;;27.80;46.88;100307.78;5068937;28;20028;-67
2023/06/30 10:42:20;;;;;;;2.25;0.38;;;;;;;27.67;46.67;100305.56;5060499;28;20028;-66
2023/06/30 10:44:46;;;;;;;3.63;0.50;;;;;;;27.08;47.04;100303.06;5070490;28;23045;-66
2023/06/30 10:47:12;;;;;;;3.67;0.40;;;;;;;26.95;46.62;100303.47;5091674;28;20143;-67
2023/06/30 10:49:40;;;;;;;2.30;0.38;;;;;;;26.93;47.32;100305.63;5066502;28;20531;-67
2023/06/30 10:52:10;;;;;;;1.23;0.35;;;;;;;27.26;47.74;100305.34;5071289;28;20124;-67
2023/06/30 10:54:47;;;;;;;5.18;0.80;;;;;;;27.17;46.70;100293.50;5070646;28;20055;-67
2023/06/30 10:57:20;;;;;;;5.30;0.30;;;;;;;27.00;46.50;100292.84;5073976;28;20040;-66
2023/06/30 10:59:47;;;;;;;1.90;0.40;;;;;;;26.71;46.14;100287.81;5062736;28;20040;-67
2023/06/30 11:02:18;;;;;;;1.83;0.40;;;;;;;26.61;46.76;100293.06;5069139;28;20028;-67
2023/06/30 11:04:46;;;;;;;1.63;0.40;;;;;;;26.62;47.41;100293.88;5071724;28;20041;-67
2023/06/30 11:07:23;;;;;;;2.90;0.40;;;;;;;26.44;47.19;100295.88;5071699;28;20027;-66
2023/06/30 11:09:48;;;;;;;2.97;0.40;;;;;;;26.55;47.64;100286.06;5084418;28;20574;-67
2023/06/30 11:12:18;;;;;;;1.95;0.40;;;;;;;26.53;47.47;100282.84;5088330;28;20036;-67
2023/06/30 11:14:56;;;;;;;1.13;0.40;;;;;;;26.70;47.82;100277.38;5081919;28;20114;-67
2023/06/30 11:17:26;;;;;;;1.73;0.52;;;;;;;26.92;47.52;100270.06;5091490;28;20114;-66
2023/06/30 11:20:18;;;;;;;2.63;0.45;;;;;;;26.99;47.50;100275.19;5089372;28;20108;-67
2023/06/30 11:23:03;;;;;;;2.30;0.30;;;;;;;27.07;49.92;100269.38;5088362;28;20047;-67
2023/06/30 11:25:37;;;;;;;1.60;0.40;;;;;;;27.02;50.40;100274.69;5087474;28;20138;-67